Time;durP1;ratioP1;P1;durP2;ratioP2;P2;SDS_P1;SDS_P2;PMS_P1;PMS_P2;Temp;Humidity;BMP_temperature;BMP_pressure;BME280_temperature;BME280_humidity;BME280_pressure;Samples;Min_cycle;Max_cycle;Signal;HPM_P1;HPM_P2
2023/06/02 00:01:02;;;;;;;13.07;2.50;;;10.70;99.90;;;;;;5119966;28;20053;-57
2023/06/02 00:03:33;;;;;;;12.23;2.85;;;10.70;99.90;;;;;;5119821;28;20054;-57
2023/06/02 00:06:08;;;;;;;16.20;3.10;;;10.70;99.90;;;;;;5119753;28;20040;-57
2023/06/02 00:08:40;;;;;;;15.95;3.13;;;10.70;99.90;;;;;;5118389;28;20047;-57
2023/06/02 00:11:07;;;;;;;13.40;2.55;;;10.70;99.90;;;;;;5120070;27;20071;-57
2023/06/02 00:13:33;;;;;;;11.75;2.55;;;10.60;99.90;;;;;;5119787;28;20406;-57
2023/06/02 00:16:00;;;;;;;12.40;3.15;;;10.70;99.90;;;;;;5119592;28;20566;-54
2023/06/02 00:18:26;;;;;;;14.63;2.60;;;10.60;99.90;;;;;;5118711;28;20434;-57
2023/06/02 00:20:52;;;;;;;19.05;2.50;;;10.60;99.90;;;;;;5118311;28;20039;-57
2023/06/02 00:23:18;;;;;;;10.52;2.80;;;10.60;99.90;;;;;;5119511;28;20043;-57
2023/06/02 00:25:45;;;;;;;13.32;2.92;;;10.60;99.90;;;;;;5119710;27;20048;-57
2023/06/02 00:28:11;;;;;;;15.77;2.88;;;10.50;99.90;;;;;;5119268;28;20127;-57
2023/06/02 00:30:37;;;;;;;15.93;2.60;;;10.50;99.90;;;;;;5119126;28;20067;-57
2023/06/02 00:33:04;;;;;;;13.95;2.85;;;10.50;99.90;;;;;;5119235;28;20043;-56
2023/06/02 00:35:30;;;;;;;15.70;2.80;;;10.50;99.90;;;;;;5119778;28;20032;-56
2023/06/02 00:37:55;;;;;;;14.80;2.63;;;10.50;99.90;;;;;;5119208;28;20055;-56
2023/06/02 00:40:22;;;;;;;13.60;2.80;;;10.40;99.90;;;;;;5119279;27;20503;-57
2023/06/02 00:42:48;;;;;;;14.05;3.38;;;10.40;99.90;;;;;;5119117;28;20040;-55
2023/06/02 00:45:15;;;;;;;13.70;2.50;;;10.40;99.90;;;;;;5118956;28;20050;-56
2023/06/02 00:47:41;;;;;;;15.82;2.75;;;10.40;99.90;;;;;;5119177;28;20039;-56
2023/06/02 00:50:08;;;;;;;15.95;2.58;;;10.40;99.90;;;;;;5118654;28;20084;-57
2023/06/02 00:52:34;;;;;;;14.57;2.85;;;10.30;99.90;;;;;;5119519;28;20088;-56
2023/06/02 00:55:02;;;;;;;14.95;3.45;;;10.40;99.90;;;;;;5118560;28;20061;-54
2023/06/02 00:57:28;;;;;;;13.20;2.45;;;10.40;99.90;;;;;;5119028;28;20055;-55
2023/06/02 00:59:57;;;;;;;17.77;2.50;;;10.30;99.90;;;;;;5118312;28;20047;-57
2023/06/02 01:02:23;;;;;;;16.20;2.75;;;10.40;99.90;;;;;;5118375;28;20167;-57
2023/06/02 01:04:50;;;;;;;13.95;2.65;;;10.40;99.90;;;;;;5118773;28;20102;-56
2023/06/02 01:07:23;;;;;;;13.38;3.28;;;10.40;99.90;;;;;;5116876;28;20109;-57
2023/06/02 01:09:55;;;;;;;;;;;10.30;99.90;;;;;;5119669;28;20036;-57
2023/06/02 01:12:22;;;;;;;14.95;2.78;;;10.40;99.90;;;;;;5117224;28;19927;-56
2023/06/02 01:14:48;;;;;;;18.50;3.17;;;10.30;99.90;;;;;;5118701;28;20043;-56
2023/06/02 01:17:15;;;;;;;15.20;3.08;;;10.30;99.90;;;;;;5118195;28;20425;-55
2023/06/02 01:19:41;;;;;;;10.65;2.58;;;10.20;99.90;;;;;;5118287;28;20047;-58
2023/06/02 01:22:10;;;;;;;15.05;3.35;;;10.30;99.90;;;;;;5118842;28;20054;-56
2023/06/02 01:24:40;;;;;;;13.10;2.90;;;10.30;99.90;;;;;;5116629;28;20031;-57
2023/06/02 01:27:12;;;;;;;13.52;2.38;;;10.30;99.90;;;;;;5118974;28;20035;-57
2023/06/02 01:29:38;;;;;;;17.70;2.88;;;10.30;99.90;;;;;;5118063;28;20059;-55
2023/06/02 01:32:39;;;;;;;13.82;2.88;;;10.20;99.90;;;;;;5118204;28;20044;-56
2023/06/02 01:35:10;;;;;;;13.93;2.40;;;10.20;99.90;;;;;;5118744;28;20040;-57
2023/06/02 01:37:39;;;;;;;15.00;2.55;;;10.20;99.90;;;;;;5117708;28;20095;-56
2023/06/02 01:40:07;;;;;;;11.13;2.25;;;10.20;99.90;;;;;;5118629;28;20054;-57
2023/06/02 01:42:34;;;;;;;18.55;3.20;;;10.20;99.90;;;;;;5116968;28;20052;-57
2023/06/02 01:45:02;;;;;;;17.77;3.42;;;10.10;99.90;;;;;;5118271;28;20082;-57
2023/06/02 01:47:28;;;;;;;19.30;2.80;;;10.10;99.90;;;;;;5118021;28;20048;-57
2023/06/02 01:49:54;;;;;;;18.13;2.88;;;10.20;99.90;;;;;;5118198;28;20047;-56
2023/06/02 01:52:19;;;;;;;18.80;3.90;;;10.20;99.90;;;;;;5118249;28;20051;-56
2023/06/02 01:54:46;;;;;;;15.90;2.58;;;10.20;99.90;;;;;;5117734;28;20063;-56
2023/06/02 01:57:11;;;;;;;17.48;3.47;;;10.30;99.90;;;;;;5118435;28;20071;-56
2023/06/02 01:59:37;;;;;;;21.52;3.03;;;10.30;99.90;;;;;;5118022;28;20051;-56
2023/06/02 02:02:03;;;;;;;17.17;2.65;;;10.20;99.90;;;;;;5117638;28;20051;-56
2023/06/02 02:04:29;;;;;;;17.75;2.85;;;10.30;99.90;;;;;;5118019;28;20036;-56
2023/06/02 02:06:55;;;;;;;11.80;2.78;;;10.30;99.90;;;;;;5118301;28;20038;-56
2023/06/02 02:09:21;;;;;;;14.20;3.30;;;10.30;99.90;;;;;;5118193;28;20610;-56
2023/06/02 02:11:47;;;;;;;16.38;2.85;;;10.30;99.90;;;;;;5117839;28;20048;-56
2023/06/02 02:14:13;;;;;;;19.45;3.95;;;10.30;99.90;;;;;;5116909;28;20066;-56
2023/06/02 02:16:44;;;;;;;16.02;2.58;;;10.30;99.90;;;;;;5122015;28;20044;-56
2023/06/02 02:19:12;;;;;;;16.65;3.10;;;10.30;99.90;;;;;;5121660;28;20087;-56
2023/06/02 02:21:38;;;;;;;16.13;2.90;;;10.40;99.90;;;;;;5121594;28;20122;-55
2023/06/02 02:24:05;;;;;;;16.85;3.00;;;10.40;99.90;;;;;;5121822;28;20045;-57
2023/06/02 02:26:30;;;;;;;13.30;2.63;;;10.30;99.90;;;;;;5122101;28;20144;-57
2023/06/02 02:28:56;;;;;;;16.83;2.90;;;10.30;99.90;;;;;;5121489;28;20051;-57
2023/06/02 02:31:22;;;;;;;18.55;3.33;;;10.40;99.90;;;;;;5121704;28;20047;-57
2023/06/02 02:33:48;;;;;;;20.08;2.85;;;10.30;99.90;;;;;;5121821;28;20432;-56
2023/06/02 02:36:16;;;;;;;16.92;2.80;;;10.40;99.90;;;;;;5121558;28;20039;-57
2023/06/02 02:38:42;;;;;;;13.73;2.38;;;10.40;99.90;;;;;;5120145;28;20043;-57
2023/06/02 02:41:07;;;;;;;12.00;2.90;;;10.30;99.90;;;;;;5121446;28;20082;-57
2023/06/02 02:43:33;;;;;;;20.52;3.28;;;10.30;99.90;;;;;;5121341;28;20079;-56
2023/06/02 02:45:59;;;;;;;13.55;2.83;;;10.30;99.90;;;;;;5121253;28;20040;-57
2023/06/02 02:48:25;;;;;;;18.27;3.30;;;10.40;99.90;;;;;;5120605;28;20131;-57
2023/06/02 02:50:50;;;;;;;19.55;3.05;;;10.40;99.90;;;;;;5121347;28;20095;-57
2023/06/02 02:53:16;;;;;;;24.77;3.50;;;10.30;99.90;;;;;;5120597;28;20179;-57
2023/06/02 02:55:44;;;;;;;20.60;3.70;;;10.30;99.90;;;;;;5120936;28;20067;-57
2023/06/02 02:58:10;;;;;;;16.15;3.85;;;10.20;99.90;;;;;;5121116;28;20296;-56
2023/06/02 03:00:36;;;;;;;19.40;3.72;;;10.40;99.90;;;;;;5121043;28;20103;-56
2023/06/02 03:03:02;;;;;;;17.23;3.88;;;10.40;99.90;;;;;;5120831;28;20656;-56
2023/06/02 03:05:28;;;;;;;18.73;3.13;;;10.30;99.90;;;;;;5121621;28;20128;-56
2023/06/02 03:07:54;;;;;;;19.13;3.30;;;10.40;99.90;;;;;;5119592;28;20044;-56
2023/06/02 03:10:20;;;;;;;19.23;3.42;;;10.40;99.90;;;;;;5121029;28;20052;-57
2023/06/02 03:12:46;;;;;;;15.68;3.70;;;10.40;99.90;;;;;;5120966;28;20082;-57
2023/06/02 03:15:11;;;;;;;12.50;3.08;;;10.50;99.90;;;;;;5121010;28;20041;-57
2023/06/02 03:17:37;;;;;;;15.88;3.30;;;10.50;99.90;;;;;;5120909;28;20047;-56
2023/06/02 03:20:13;;;;;;;19.75;3.20;;;10.50;99.90;;;;;;5120702;28;20039;-56
2023/06/02 03:22:39;;;;;;;17.20;3.20;;;10.50;99.90;;;;;;5119924;28;20423;-57
2023/06/02 03:25:05;;;;;;;19.17;3.78;;;10.60;99.90;;;;;;5120382;28;20063;-57
2023/06/02 03:27:32;;;;;;;20.38;3.78;;;10.50;99.90;;;;;;5120645;28;20036;-56
2023/06/02 03:29:57;;;;;;;18.83;3.30;;;10.50;99.90;;;;;;5119566;28;20059;-57
2023/06/02 03:32:23;;;;;;;15.10;3.10;;;10.60;99.90;;;;;;5120505;28;20247;-57
2023/06/02 03:34:49;;;;;;;19.83;3.15;;;10.70;99.90;;;;;;5120715;28;20052;-55
2023/06/02 03:37:14;;;;;;;17.15;3.42;;;10.60;99.90;;;;;;5118762;28;20127;-57
2023/06/02 03:39:40;;;;;;;21.75;3.88;;;10.60;99.90;;;;;;5120952;28;20054;-57
2023/06/02 03:42:06;;;;;;;19.50;3.25;;;10.60;99.90;;;;;;5120215;28;20064;-57
2023/06/02 03:44:32;;;;;;;24.50;3.45;;;10.60;99.90;;;;;;5120210;28;20044;-57
2023/06/02 03:46:57;;;;;;;16.70;3.67;;;10.70;99.90;;;;;;5120477;28;20048;-57
2023/06/02 03:49:27;;;;;;;18.55;5.40;;;10.70;99.90;;;;;;5120151;28;20048;-57
2023/06/02 03:51:53;;;;;;;13.18;3.00;;;10.60;99.90;;;;;;5118885;28;20069;-56
2023/06/02 03:54:18;;;;;;;20.35;3.15;;;10.70;99.90;;;;;;5119408;28;20035;-55
2023/06/02 03:56:44;;;;;;;18.48;3.47;;;10.70;99.90;;;;;;5120378;28;20047;-57
2023/06/02 03:59:10;;;;;;;17.60;4.00;;;10.60;99.90;;;;;;5118390;28;20032;-57
2023/06/02 04:01:35;;;;;;;19.90;3.38;;;10.70;99.90;;;;;;5119821;28;20044;-56
2023/06/02 04:04:01;;;;;;;16.08;3.22;;;10.80;99.90;;;;;;5119925;28;20035;-57
2023/06/02 04:06:28;;;;;;;17.08;3.08;;;10.90;99.90;;;;;;5101499;28;20547;-56
2023/06/02 04:08:54;;;;;;;15.52;3.80;;;10.80;99.90;;;;;;5118302;28;20128;-56
2023/06/02 04:11:22;;;;;;;17.23;3.30;;;10.90;99.90;;;;;;5119485;28;20097;-57
2023/06/02 04:13:49;;;;;;;17.92;3.30;;;10.90;99.90;;;;;;5120356;28;20474;-55
2023/06/02 04:16:15;;;;;;;19.63;3.80;;;10.90;99.90;;;;;;5119353;28;20052;-57
2023/06/02 04:18:41;;;;;;;19.90;3.50;;;10.90;99.90;;;;;;5119876;28;20069;-57
2023/06/02 04:21:06;;;;;;;20.80;3.47;;;10.90;99.90;;;;;;5119679;28;20046;-56
2023/06/02 04:23:32;;;;;;;14.63;3.00;;;10.90;99.90;;;;;;5118036;28;20843;-57
2023/06/02 04:25:58;;;;;;;19.42;3.38;;;10.80;99.90;;;;;;5117976;28;20047;-57
2023/06/02 04:28:24;;;;;;;14.13;3.40;;;10.90;99.90;;;;;;5119309;28;20043;-56
2023/06/02 04:30:53;;;;;;;19.33;3.08;;;11.00;99.90;;;;;;5119782;28;20036;-57
2023/06/02 04:33:19;;;;;;;15.85;3.53;;;10.90;99.90;;;;;;5119120;28;20096;-57
2023/06/02 04:35:44;;;;;;;15.35;3.38;;;11.10;99.90;;;;;;5119480;28;20032;-56
2023/06/02 04:38:11;;;;;;;19.63;3.50;;;11.10;99.90;;;;;;5118639;28;20048;-57
2023/06/02 04:40:38;;;;;;;18.55;4.05;;;11.00;99.90;;;;;;5118038;28;20043;-57
2023/06/02 04:43:03;;;;;;;16.83;3.25;;;11.00;99.90;;;;;;5119234;28;20050;-58
2023/06/02 04:45:29;;;;;;;18.67;3.60;;;11.10;99.90;;;;;;5119322;28;20059;-57
2023/06/02 04:47:55;;;;;;;18.50;3.67;;;11.10;99.90;;;;;;5119733;28;20043;-57
2023/06/02 04:50:21;;;;;;;22.08;3.55;;;11.10;99.90;;;;;;5118686;28;20505;-57
2023/06/02 04:52:46;;;;;;;20.23;3.58;;;11.10;99.90;;;;;;5119142;28;20095;-57
2023/06/02 04:55:13;;;;;;;22.08;3.65;;;11.20;99.90;;;;;;5118895;28;20050;-56
2023/06/02 04:57:40;;;;;;;14.48;3.00;;;11.20;99.90;;;;;;5118759;28;20049;-58
2023/06/02 05:00:07;;;;;;;22.02;3.45;;;11.20;99.90;;;;;;5117227;28;20055;-58
2023/06/02 05:02:33;;;;;;;24.27;4.97;;;11.10;99.90;;;;;;5117128;28;20596;-57
2023/06/02 05:04:59;;;;;;;17.30;3.55;;;11.30;99.90;;;;;;5119027;28;20103;-56
2023/06/02 05:07:24;;;;;;;13.35;3.63;;;11.20;99.90;;;;;;5118538;28;20035;-57
2023/06/02 05:09:50;;;;;;;20.60;4.22;;;11.20;99.90;;;;;;5119342;28;20078;-57
2023/06/02 05:12:16;;;;;;;24.17;3.97;;;11.20;99.90;;;;;;5118913;28;20035;-56
2023/06/02 05:14:42;;;;;;;16.70;3.78;;;11.20;99.90;;;;;;5118662;28;20035;-57
2023/06/02 05:17:08;;;;;;;20.00;3.80;;;11.30;99.90;;;;;;5118416;28;20095;-57
2023/06/02 05:19:35;;;;;;;20.58;4.78;;;11.30;99.90;;;;;;5118742;28;20036;-57
2023/06/02 05:22:02;;;;;;;16.58;3.75;;;11.30;99.90;;;;;;5118879;28;20095;-57
2023/06/02 05:24:28;;;;;;;17.98;4.18;;;11.30;99.90;;;;;;5118396;28;20043;-56
2023/06/02 05:26:54;;;;;;;15.70;4.22;;;11.40;99.90;;;;;;5117784;28;20131;-56
2023/06/02 05:29:20;;;;;;;16.40;4.22;;;11.40;99.90;;;;;;5113048;28;20083;-56
2023/06/02 05:31:45;;;;;;;22.17;4.57;;;11.50;99.90;;;;;;5114123;28;20095;-57
2023/06/02 05:34:11;;;;;;;16.15;4.57;;;11.60;99.90;;;;;;5114703;28;20449;-57
2023/06/02 05:36:37;;;;;;;20.60;4.40;;;11.60;99.90;;;;;;5113230;28;20039;-57
2023/06/02 05:39:02;;;;;;;19.63;4.70;;;11.60;99.90;;;;;;5114804;28;20046;-53
2023/06/02 05:41:28;;;;;;;21.85;5.05;;;11.60;99.90;;;;;;5113515;28;20040;-57
2023/06/02 05:43:55;;;;;;;17.63;4.53;;;11.80;99.90;;;;;;5114608;28;20032;-56
2023/06/02 05:46:22;;;;;;;28.00;4.95;;;11.70;99.90;;;;;;5114140;28;20055;-56
2023/06/02 05:48:48;;;;;;;20.30;5.38;;;11.80;99.90;;;;;;5114880;28;20048;-56
2023/06/02 05:51:13;;;;;;;20.38;4.65;;;12.00;99.90;;;;;;5118405;28;20078;-56
2023/06/02 05:53:39;;;;;;;26.70;4.97;;;11.90;99.90;;;;;;5118846;28;20130;-56
2023/06/02 05:56:05;;;;;;;19.90;4.85;;;12.10;99.90;;;;;;5118550;28;20044;-57
2023/06/02 05:58:31;;;;;;;20.05;5.53;;;12.20;99.90;;;;;;5117901;28;20043;-56
2023/06/02 06:00:57;;;;;;;15.93;4.03;;;12.20;99.90;;;;;;5119070;28;20059;-57
2023/06/02 06:03:23;;;;;;;21.17;4.63;;;12.20;99.90;;;;;;5118243;28;20088;-56
2023/06/02 06:05:48;;;;;;;23.63;4.75;;;12.40;99.90;;;;;;5118695;28;20562;-57
2023/06/02 06:08:14;;;;;;;25.52;4.65;;;12.30;99.90;;;;;;5118639;28;20048;-57
2023/06/02 06:10:42;;;;;;;30.92;4.75;;;12.40;99.90;;;;;;5117186;28;20460;-56
2023/06/02 06:13:08;;;;;;;25.75;5.53;;;12.40;99.90;;;;;;5118791;28;20044;-57
2023/06/02 06:15:34;;;;;;;20.70;5.13;;;12.50;99.90;;;;;;5118297;28;20124;-57
2023/06/02 06:17:59;;;;;;;19.05;4.93;;;12.60;99.90;;;;;;5119181;28;20075;-57
2023/06/02 06:20:25;;;;;;;21.20;4.60;;;12.70;99.90;;;;;;5118312;28;20050;-56
2023/06/02 06:22:51;;;;;;;27.65;4.97;;;12.70;99.90;;;;;;5118774;27;20044;-57
2023/06/02 06:25:17;;;;;;;26.20;4.70;;;12.70;99.90;;;;;;5118418;27;20054;-57
2023/06/02 06:27:43;;;;;;;24.48;4.25;;;12.70;99.90;;;;;;5118139;28;20755;-57
2023/06/02 06:30:09;;;;;;;30.70;5.22;;;12.70;99.90;;;;;;5118535;28;20044;-56
2023/06/02 06:32:35;;;;;;;17.63;3.95;;;12.90;99.90;;;;;;5117886;28;20047;-57
2023/06/02 06:35:01;;;;;;;23.58;5.60;;;12.70;99.90;;;;;;5118896;28;20043;-57
2023/06/02 06:37:29;;;;;;;23.35;6.10;;;12.90;99.90;;;;;;5117842;28;20054;-56
2023/06/02 06:39:55;;;;;;;23.77;4.50;;;12.90;99.90;;;;;;5118058;28;20051;-57
2023/06/02 06:42:22;;;;;;;23.88;4.43;;;13.00;99.90;;;;;;5117994;28;20077;-57
2023/06/02 06:44:50;;;;;;;18.02;4.38;;;13.10;99.90;;;;;;5117723;28;20047;-57
2023/06/02 06:47:17;;;;;;;17.85;4.57;;;13.10;99.90;;;;;;5117578;28;20059;-57
2023/06/02 06:49:43;;;;;;;17.90;3.40;;;13.30;99.90;;;;;;5117844;28;20503;-56
2023/06/02 06:52:08;;;;;;;21.58;4.60;;;13.40;99.90;;;;;;5118052;28;20043;-57
2023/06/02 06:54:34;;;;;;;21.70;3.33;;;13.40;99.90;;;;;;5117567;28;20044;-57
2023/06/02 06:56:59;;;;;;;25.08;5.00;;;13.40;99.90;;;;;;5117815;28;20043;-57
2023/06/02 06:59:25;;;;;;;21.77;4.07;;;13.60;99.90;;;;;;5116405;28;20047;-57
2023/06/02 07:01:51;;;;;;;18.13;4.47;;;13.60;99.90;;;;;;5115067;28;20100;-58
2023/06/02 07:04:17;;;;;;;19.27;4.55;;;13.70;99.90;;;;;;5115852;28;20052;-57
2023/06/02 07:06:43;;;;;;;22.95;4.50;;;13.70;99.90;;;;;;5117370;28;20063;-57
2023/06/02 07:09:10;;;;;;;21.27;4.65;;;13.90;99.90;;;;;;5117243;28;20095;-56
2023/06/02 07:11:36;;;;;;;16.27;3.90;;;14.00;99.90;;;;;;5117198;28;20050;-57
2023/06/02 07:14:02;;;;;;;17.48;3.60;;;14.40;99.90;;;;;;5117963;28;20127;-57
2023/06/02 07:16:27;;;;;;;16.33;3.50;;;14.40;99.90;;;;;;5116876;28;20072;-57
2023/06/02 07:18:53;;;;;;;20.20;3.55;;;14.50;99.90;;;;;;5117918;28;20059;-57
2023/06/02 07:21:19;;;;;;;17.30;3.80;;;14.60;99.90;;;;;;5119843;28;20119;-58
2023/06/02 07:23:45;;;;;;;15.65;3.42;;;14.70;99.90;;;;;;5118731;28;20040;-58
2023/06/02 07:26:10;;;;;;;15.18;3.17;;;15.00;99.90;;;;;;5119594;28;20044;-58
2023/06/02 07:28:38;;;;;;;17.65;3.03;;;15.10;99.90;;;;;;5119433;28;20047;-57
2023/06/02 07:31:04;;;;;;;17.95;3.03;;;15.20;99.90;;;;;;5119508;28;20044;-58
2023/06/02 07:33:29;;;;;;;18.58;3.28;;;15.30;99.90;;;;;;5119526;28;20070;-57
2023/06/02 07:35:55;;;;;;;14.43;3.17;;;15.30;99.90;;;;;;5120196;28;20499;-57
2023/06/02 07:38:21;;;;;;;17.60;2.80;;;15.30;99.90;;;;;;5119791;27;20031;-57
2023/06/02 07:40:46;;;;;;;13.65;2.85;;;15.10;99.90;;;;;;5118773;28;20043;-58
2023/06/02 07:43:12;;;;;;;14.77;3.17;;;15.00;99.90;;;;;;5118957;28;20067;-56
2023/06/02 07:45:38;;;;;;;13.70;2.72;;;15.10;99.90;;;;;;5118453;28;20143;-57
2023/06/02 07:48:03;;;;;;;15.65;3.20;;;15.30;99.90;;;;;;5118263;28;20047;-58
2023/06/02 07:50:29;;;;;;;16.00;3.42;;;15.40;99.90;;;;;;5119604;28;20047;-56
2023/06/02 07:52:55;;;;;;;16.73;2.67;;;15.50;99.90;;;;;;5120112;28;20054;-56
2023/06/02 07:55:21;;;;;;;15.02;3.10;;;15.60;99.90;;;;;;5119967;28;20036;-58
2023/06/02 07:57:47;;;;;;;18.13;3.30;;;15.70;99.90;;;;;;5119600;28;20060;-57
2023/06/02 08:00:17;;;;;;;15.35;2.85;;;15.80;99.90;;;;;;5119635;28;20067;-57
2023/06/02 08:02:46;;;;;;;9.30;2.47;;;15.80;99.90;;;;;;5119352;28;20059;-57
2023/06/02 08:05:13;;;;;;;11.95;2.65;;;16.10;99.90;;;;;;5111148;28;20101;-57
2023/06/02 08:07:39;;;;;;;11.85;2.85;;;16.20;99.90;;;;;;5099241;28;20055;-57
2023/06/02 08:10:05;;;;;;;15.95;2.88;;;16.40;99.90;;;;;;5099412;28;20040;-56
2023/06/02 08:12:31;;;;;;;15.27;2.38;;;16.40;99.90;;;;;;5108724;28;20067;-55
2023/06/02 08:14:57;;;;;;;13.50;2.30;;;16.40;99.90;;;;;;5117565;28;20046;-57
2023/06/02 08:17:28;;;;;;;12.68;2.53;;;16.30;99.90;;;;;;5118533;28;20040;-57
2023/06/02 08:19:58;;;;;;;13.35;2.47;;;16.30;99.90;;;;;;5118612;28;20048;-56
2023/06/02 08:22:27;;;;;;;14.63;2.35;;;16.40;99.90;;;;;;5119271;27;20042;-57
2023/06/02 08:24:56;;;;;;;8.90;2.15;;;16.50;99.90;;;;;;5118905;28;20043;-57
2023/06/02 08:27:23;;;;;;;11.80;2.72;;;16.60;99.90;;;;;;5118274;28;20133;-57
2023/06/02 08:29:49;;;;;;;11.40;2.15;;;16.50;99.90;;;;;;5118938;28;20060;-55
2023/06/02 08:32:19;;;;;;;11.35;2.40;;;16.60;99.90;;;;;;5117893;28;20047;-56
2023/06/02 08:34:47;;;;;;;10.85;2.10;;;16.80;99.90;;;;;;5118678;28;20046;-57
2023/06/02 08:37:17;;;;;;;5.72;1.70;;;16.90;99.90;;;;;;5118208;28;20071;-56
2023/06/02 08:39:50;;;;;;;9.15;1.88;;;17.10;99.90;;;;;;5118628;28;20043;-57
2023/06/02 08:42:16;;;;;;;8.95;2.03;;;17.10;99.90;;;;;;5118880;28;20047;-56
2023/06/02 08:44:43;;;;;;;9.85;2.20;;;17.00;99.90;;;;;;5118001;28;20043;-57
2023/06/02 08:47:13;;;;;;;8.15;2.10;;;17.10;99.90;;;;;;5117803;28;20039;-56
2023/06/02 08:49:43;;;;;;;12.10;2.28;;;17.00;99.90;;;;;;5115432;28;20054;-57
2023/06/02 08:52:25;;;;;;;11.10;1.90;;;17.10;99.90;;;;;;5118498;28;20064;-55
2023/06/02 08:54:51;;;;;;;8.35;2.72;;;17.10;99.90;;;;;;5118388;28;20054;-56
2023/06/02 08:57:20;;;;;;;11.63;2.67;;;17.10;99.90;;;;;;5118331;28;20044;-57
2023/06/02 08:59:46;;;;;;;15.55;2.17;;;17.10;99.90;;;;;;5118667;28;20055;-57
2023/06/02 09:02:15;;;;;;;10.70;1.58;;;17.10;99.90;;;;;;5118062;28;20073;-57
2023/06/02 09:04:41;;;;;;;6.95;1.90;;;17.10;99.90;;;;;;5118622;28;20051;-57
2023/06/02 09:07:13;;;;;;;5.93;1.60;;;17.20;99.90;;;;;;5118330;28;20043;-56
2023/06/02 09:09:47;;;;;;;7.57;1.67;;;17.20;99.90;;;;;;5119169;28;20036;-56
2023/06/02 09:12:14;;;;;;;11.38;1.95;;;17.30;99.90;;;;;;5118490;28;20031;-56
2023/06/02 09:14:41;;;;;;;8.50;1.70;;;17.30;99.90;;;;;;5116725;28;20452;-57
2023/06/02 09:17:27;;;;;;;7.05;1.45;;;17.50;99.90;;;;;;5118211;28;20085;-57
2023/06/02 09:19:55;;;;;;;7.93;1.77;;;17.50;99.90;;;;;;5117874;28;20105;-55
2023/06/02 09:22:20;;;;;;;6.28;1.58;;;17.60;99.90;;;;;;5118758;28;20124;-57
2023/06/02 09:24:46;;;;;;;9.30;1.75;;;17.70;99.90;;;;;;5117857;28;20040;-57
2023/06/02 09:27:13;;;;;;;7.32;1.40;;;17.70;99.90;;;;;;5118344;28;20680;-57
2023/06/02 09:29:40;;;;;;;7.28;1.80;;;17.70;99.90;;;;;;5117771;28;20040;-57
2023/06/02 09:32:15;;;;;;;8.55;1.80;;;17.80;99.90;;;;;;5117587;28;20052;-57
2023/06/02 09:34:41;;;;;;;8.02;1.63;;;17.70;99.90;;;;;;5117372;28;20031;-57
2023/06/02 09:37:09;;;;;;;7.90;1.88;;;17.70;99.90;;;;;;5117695;28;20074;-57
2023/06/02 09:39:38;;;;;;;8.15;1.80;;;17.60;99.90;;;;;;5118236;28;20069;-57
2023/06/02 09:42:05;;;;;;;8.52;1.70;;;17.60;99.90;;;;;;5117035;28;20044;-56
2023/06/02 09:44:31;;;;;;;6.65;1.70;;;17.70;99.90;;;;;;5115180;28;20051;-58
2023/06/02 09:46:57;;;;;;;5.88;1.30;;;17.80;99.90;;;;;;5116685;28;20027;-57
2023/06/02 09:49:22;;;;;;;10.00;1.58;;;17.80;99.90;;;;;;5117206;28;20052;-57
2023/06/02 09:51:48;;;;;;;6.22;1.83;;;17.90;99.90;;;;;;5116254;28;20066;-56
2023/06/02 09:54:14;;;;;;;5.53;1.38;;;17.90;99.90;;;;;;5117360;28;20098;-56
2023/06/02 09:56:40;;;;;;;7.07;1.80;;;18.00;99.90;;;;;;5117497;28;20045;-57
2023/06/02 09:59:07;;;;;;;8.13;1.35;;;18.00;99.90;;;;;;5117226;28;20046;-57
2023/06/02 10:01:34;;;;;;;5.00;1.83;;;18.00;99.90;;;;;;5116284;28;20052;-57
2023/06/02 10:04:02;;;;;;;6.03;1.38;;;18.10;99.90;;;;;;5116709;28;20069;-57
2023/06/02 10:06:36;;;;;;;7.50;1.55;;;18.00;99.90;;;;;;5118137;28;20047;-57
2023/06/02 10:09:36;;;;;;;5.70;1.20;;;18.10;99.90;;;;;;5118162;28;20066;-57
2023/06/02 10:12:17;;;;;;;8.00;1.77;;;18.20;99.90;;;;;;5117430;28;20091;-57
2023/06/02 10:15:21;;;;;;;4.72;1.65;;;18.30;99.90;;;;;;5117529;28;20039;-57
2023/06/02 10:17:53;;;;;;;5.55;1.40;;;18.30;99.90;;;;;;5117975;28;20044;-57
2023/06/02 10:20:52;;;;;;;7.38;1.50;;;18.30;99.90;;;;;;5117640;28;20049;-57
2023/06/02 10:23:37;;;;;;;6.43;1.38;;;18.30;98.50;;;;;;5117767;28;20095;-57
2023/06/02 10:26:36;;;;;;;4.95;1.40;;;18.40;99.90;;;;;;5099326;28;20073;-57
2023/06/02 10:29:05;;;;;;;4.22;1.30;;;18.40;99.60;;;;;;5117806;28;20051;-57
2023/06/02 10:31:34;;;;;;;6.45;1.70;;;18.50;99.90;;;;;;5117649;28;20048;-57
2023/06/02 10:34:01;;;;;;;4.85;1.20;;;18.50;99.80;;;;;;5117732;28;20044;-57
2023/06/02 10:36:28;;;;;;;6.68;1.25;;;18.50;99.90;;;;;;5119964;28;20047;-57
2023/06/02 10:38:55;;;;;;;5.72;1.13;;;18.60;99.00;;;;;;5121055;28;20040;-57
2023/06/02 10:42:00;;;;;;;5.03;1.40;;;18.60;97.40;;;;;;5119811;28;20040;-57
2023/06/02 10:44:25;;;;;;;11.77;5.28;;;18.50;97.10;;;;;;5119170;28;20131;-57
2023/06/02 10:47:19;;;;;;;7.00;3.13;;;18.30;98.00;;;;;;5120259;28;20043;-56
2023/06/02 10:50:10;;;;;;;6.78;2.03;;;18.50;98.10;;;;;;5120564;28;20040;-57
2023/06/02 10:52:58;;;;;;;6.40;1.50;;;18.50;96.70;;;;;;5119598;28;20050;-57
2023/06/02 10:55:26;;;;;;;8.30;1.60;;;18.60;99.10;;;;;;5119815;28;20100;-57
2023/06/02 10:58:05;;;;;;;9.02;1.67;;;18.40;99.90;;;;;;5120379;28;20063;-57
2023/06/02 11:00:39;;;;;;;6.18;1.60;;;18.60;99.80;;;;;;5121054;28;20530;-57
2023/06/02 11:03:22;;;;;;;9.45;1.92;;;18.70;99.90;;;;;;5120513;28;20062;-57
2023/06/02 11:05:54;;;;;;;9.02;1.70;;;18.50;99.90;;;;;;5120839;28;20059;-57
2023/06/02 11:08:23;;;;;;;6.57;1.95;;;18.50;99.90;;;;;;5119973;28;20058;-57
2023/06/02 11:10:56;;;;;;;6.82;1.83;;;18.40;99.90;;;;;;5120469;28;20042;-57
2023/06/02 11:13:23;;;;;;;8.23;1.90;;;18.60;99.90;;;;;;5120867;28;20043;-57
2023/06/02 11:15:55;;;;;;;7.78;2.03;;;18.70;99.90;;;;;;5120302;28;20097;-57
2023/06/02 11:18:31;;;;;;;7.30;1.73;;;18.50;99.90;;;;;;5118300;28;20057;-57
2023/06/02 11:21:00;;;;;;;9.18;1.98;;;18.50;99.90;;;;;;5118409;27;20040;-57
2023/06/02 11:23:26;;;;;;;16.80;2.72;;;18.30;99.90;;;;;;5125823;27;20051;-57
2023/06/02 11:26:01;;;;;;;9.30;2.42;;;18.60;99.90;;;;;;5125968;27;20039;-57
2023/06/02 11:28:27;;;;;;;7.75;1.90;;;18.70;99.90;;;;;;5123117;27;20738;-56
2023/06/02 11:31:14;;;;;;;8.40;2.58;;;18.80;99.90;;;;;;5127682;27;20043;-57
2023/06/02 11:33:51;;;;;;;9.15;2.63;;;18.80;99.90;;;;;;5126968;27;20059;-57
2023/06/02 11:36:28;;;;;;;8.63;2.17;;;18.80;99.90;;;;;;5126466;27;20054;-56
2023/06/02 11:39:04;;;;;;;7.63;2.45;;;18.90;99.90;;;;;;5123893;27;20047;-56
2023/06/02 11:41:29;;;;;;;9.23;2.28;;;19.00;99.90;;;;;;5124087;27;20111;-57
2023/06/02 11:44:10;;;;;;;11.00;2.28;;;18.70;99.90;;;;;;5125279;27;20076;-57
2023/06/02 11:46:36;;;;;;;9.73;2.10;;;18.90;99.90;;;;;;5124381;27;20036;-57
2023/06/02 11:49:03;;;;;;;8.43;2.40;;;18.90;99.90;;;;;;5125167;27;20051;-56
2023/06/02 11:51:30;;;;;;;12.30;2.40;;;19.10;99.90;;;;;;5126970;27;20046;-58
2023/06/02 11:54:00;;;;;;;10.95;2.67;;;19.30;99.90;;;;;;5126525;27;20117;-57
2023/06/02 11:56:26;;;;;;;9.75;2.55;;;19.10;99.90;;;;;;5126014;27;20665;-57
2023/06/02 11:58:52;;;;;;;8.90;2.50;;;19.30;99.90;;;;;;5125839;27;20066;-57
2023/06/02 12:01:19;;;;;;;10.93;3.65;;;19.20;99.90;;;;;;5125225;27;20102;-58
2023/06/02 12:04:05;;;;;;;8.60;2.50;;;19.00;99.90;;;;;;5125215;27;20040;-58
2023/06/02 12:06:47;;;;;;;9.75;2.38;;;19.00;99.90;;;;;;5123887;27;20154;-58
2023/06/02 12:09:17;;;;;;;10.27;3.00;;;18.90;99.90;;;;;;5123302;27;20061;-57
2023/06/02 12:11:47;;;;;;;8.50;2.50;;;19.20;99.90;;;;;;5123306;27;20039;-57
2023/06/02 12:14:14;;;;;;;9.52;2.70;;;19.10;99.90;;;;;;5126090;27;20066;-57
2023/06/02 12:16:42;;;;;;;8.93;2.60;;;19.00;99.90;;;;;;5127084;27;20058;-57
2023/06/02 12:19:19;;;;;;;10.38;2.63;;;19.00;99.90;;;;;;5122515;27;20043;-57
2023/06/02 12:21:47;;;;;;;7.90;2.90;;;19.10;99.90;;;;;;5124557;27;20066;-57
2023/06/02 12:24:38;;;;;;;10.02;2.55;;;19.10;99.90;;;;;;5125800;27;20031;-56
2023/06/02 12:27:05;;;;;;;12.90;3.42;;;19.20;99.90;;;;;;5127049;27;20043;-57
2023/06/02 12:29:32;;;;;;;13.38;2.78;;;19.50;99.90;;;;;;5125969;27;20039;-58
2023/06/02 12:32:03;;;;;;;8.45;2.60;;;19.50;99.90;;;;;;5125097;27;20548;-56
2023/06/02 12:34:29;;;;;;;12.10;2.92;;;19.60;99.90;;;;;;5122508;27;20090;-57
2023/06/02 12:36:55;;;;;;;9.10;2.50;;;19.40;99.90;;;;;;5125398;27;20043;-58
2023/06/02 12:39:21;;;;;;;8.43;2.78;;;19.60;99.90;;;;;;5117524;27;20069;-57
2023/06/02 12:41:47;;;;;;;8.88;2.65;;;19.10;99.90;;;;;;5115480;28;20052;-57
2023/06/02 12:44:13;;;;;;;8.43;2.80;;;19.10;99.90;;;;;;5116120;28;20099;-57
2023/06/02 12:46:39;;;;;;;10.10;2.80;;;19.00;99.90;;;;;;5115532;28;20039;-57